createdAt,value
2023-05-10T00:01:55.557Z,1.60
2023-05-10T00:04:22.422Z,2.15
2023-05-10T00:06:48.971Z,3.00
2023-05-10T00:09:15.333Z,1.45
2023-05-10T00:11:41.812Z,1.63
2023-05-10T00:14:08.222Z,1.50
2023-05-10T00:16:34.743Z,1.90
2023-05-10T00:19:01.164Z,1.50
2023-05-10T00:21:29.201Z,2.55
2023-05-10T00:23:56.086Z,2.72
2023-05-10T00:26:22.507Z,1.42
2023-05-10T00:28:49.084Z,1.48
2023-05-10T00:31:15.654Z,1.57
2023-05-10T00:33:42.042Z,1.40
2023-05-10T00:36:08.596Z,1.60
2023-05-10T00:38:35.038Z,1.83
2023-05-10T00:41:01.899Z,3.65
2023-05-10T00:43:28.375Z,2.35
2023-05-10T00:45:55.216Z,1.40
2023-05-10T00:48:22.739Z,1.80
2023-05-10T00:50:49.188Z,2.28
2023-05-10T00:53:16.002Z,2.22
2023-05-10T00:55:42.783Z,1.75
2023-05-10T00:58:09.460Z,2.17
2023-05-10T01:00:36.498Z,1.37
2023-05-10T01:03:03.812Z,1.55
2023-05-10T01:05:30.269Z,1.40
2023-05-10T01:07:57.154Z,1.30
2023-05-10T01:10:23.774Z,3.55
2023-05-10T01:12:50.431Z,1.60
2023-05-10T01:15:18.952Z,1.63
2023-05-10T01:17:48.263Z,1.60
2023-05-10T01:20:15.856Z,1.50
2023-05-10T01:22:51.178Z,1.50
2023-05-10T01:25:50.169Z,1.98
2023-05-10T01:28:40.527Z,1.92
2023-05-10T01:31:34.478Z,3.42
2023-05-10T01:34:08.918Z,3.05
2023-05-10T01:36:46.876Z,1.40
2023-05-10T01:39:45.523Z,2.75
2023-05-10T01:42:17.441Z,1.83
2023-05-10T01:44:50.653Z,3.38
2023-05-10T01:47:26.468Z,3.15
2023-05-10T01:49:57.198Z,2.05
2023-05-10T01:52:37.382Z,3.83
2023-05-10T01:55:07.512Z,1.55
2023-05-10T01:57:36.217Z,1.60
2023-05-10T02:00:05.364Z,3.10
2023-05-10T02:02:37.722Z,3.20
2023-05-10T02:05:07.450Z,2.05
2023-05-10T02:07:37.768Z,1.95
2023-05-10T02:10:06.826Z,1.67
2023-05-10T02:12:36.955Z,1.52
2023-05-10T02:15:06.514Z,3.83
2023-05-10T02:17:33.679Z,1.85
2023-05-10T02:20:01.854Z,1.27
2023-05-10T02:22:29.341Z,1.63
2023-05-10T02:24:58.804Z,1.98
2023-05-10T02:27:28.000Z,2.45
2023-05-10T02:29:55.277Z,1.48
2023-05-10T02:32:23.525Z,2.85
2023-05-10T02:34:53.007Z,1.80
2023-05-10T02:37:22.084Z,1.45
2023-05-10T02:39:50.314Z,1.73
2023-05-10T02:42:23.386Z,4.25
2023-05-10T02:44:51.972Z,2.65
2023-05-10T02:47:19.647Z,1.52
2023-05-10T02:49:46.610Z,1.60
2023-05-10T02:52:20.228Z,1.77
2023-05-10T02:54:51.735Z,5.38
2023-05-10T02:57:23.256Z,1.60
2023-05-10T02:59:49.883Z,1.48
2023-05-10T03:02:16.480Z,1.50
2023-05-10T03:04:42.982Z,3.63
2023-05-10T03:07:09.530Z,2.47
2023-05-10T03:09:36.244Z,7.13
2023-05-10T03:12:16.648Z,1.60
2023-05-10T03:15:07.982Z,1.48
2023-05-10T03:17:48.739Z,2.83
2023-05-10T03:20:35.895Z,1.40
2023-05-10T03:23:28.172Z,2.35
2023-05-10T03:25:55.153Z,2.17
2023-05-10T03:28:21.808Z,1.52
2023-05-10T03:30:49.321Z,4.90
2023-05-10T03:35:42.442Z,1.87
2023-05-10T03:38:08.827Z,1.63
2023-05-10T03:40:35.462Z,1.40
2023-05-10T03:43:02.050Z,2.80
2023-05-10T03:45:28.530Z,1.45
2023-05-10T03:47:55.304Z,1.67
2023-05-10T03:50:21.969Z,1.70
2023-05-10T03:52:48.365Z,1.87
2023-05-10T03:55:14.903Z,1.80
2023-05-10T03:57:41.272Z,1.45
2023-05-10T04:00:08.195Z,2.22
2023-05-10T04:02:34.732Z,1.80
2023-05-10T04:05:01.533Z,3.47
2023-05-10T04:07:27.949Z,1.53
2023-05-10T04:09:54.356Z,2.10
2023-05-10T04:12:20.905Z,1.55
2023-05-10T04:14:47.485Z,2.05
2023-05-10T04:17:13.969Z,1.97
2023-05-10T04:19:40.533Z,2.80
2023-05-10T04:22:06.877Z,1.73
2023-05-10T04:24:33.298Z,1.25
2023-05-10T04:26:59.683Z,1.58
2023-05-10T04:29:26.103Z,1.63
2023-05-10T04:31:52.545Z,1.45
2023-05-10T04:34:19.634Z,2.78
2023-05-10T04:36:45.982Z,2.90
2023-05-10T04:39:12.336Z,3.38
2023-05-10T04:41:39.110Z,1.70
2023-05-10T04:44:05.680Z,1.73
2023-05-10T04:46:32.303Z,1.60
2023-05-10T04:48:58.917Z,1.97
2023-05-10T04:51:25.414Z,1.95
2023-05-10T04:54:02.243Z,1.30
2023-05-10T04:56:32.132Z,2.05
2023-05-10T04:58:58.635Z,2.50
2023-05-10T05:01:25.059Z,2.28
2023-05-10T05:03:53.848Z,2.70
2023-05-10T05:06:21.997Z,1.40
2023-05-10T05:08:50.404Z,1.63
2023-05-10T05:11:17.774Z,2.60
2023-05-10T05:13:44.585Z,1.52
2023-05-10T05:16:12.169Z,1.63
2023-05-10T05:18:38.789Z,1.90
2023-05-10T05:21:15.200Z,1.37
2023-05-10T05:23:41.591Z,1.83
2023-05-10T05:26:08.119Z,1.45
2023-05-10T05:28:38.072Z,1.80
2023-05-10T05:31:08.980Z,1.60
2023-05-10T05:33:35.819Z,1.85
2023-05-10T05:36:03.940Z,2.45
2023-05-10T05:38:30.636Z,2.00
2023-05-10T05:40:57.881Z,1.88
2023-05-10T05:43:24.289Z,2.08
2023-05-10T05:45:50.970Z,2.00
2023-05-10T05:48:17.368Z,4.22
2023-05-10T05:50:43.914Z,3.28
2023-05-10T05:53:10.842Z,1.60
2023-05-10T05:55:37.474Z,2.05
2023-05-10T05:58:04.158Z,1.70
2023-05-10T06:00:30.522Z,4.07
2023-05-10T06:02:56.987Z,3.08
2023-05-10T06:05:23.435Z,2.17
2023-05-10T06:07:49.979Z,2.72
2023-05-10T06:10:16.398Z,2.03
2023-05-10T06:12:42.880Z,1.85
2023-05-10T06:15:10.079Z,8.63
2023-05-10T06:17:36.561Z,2.08
2023-05-10T06:20:03.319Z,3.80
2023-05-10T06:22:29.792Z,3.67
2023-05-10T06:24:56.275Z,5.30
2023-05-10T06:27:23.131Z,3.60
2023-05-10T06:29:52.142Z,1.60
2023-05-10T06:32:20.733Z,2.78
2023-05-10T06:34:47.389Z,4.13
2023-05-10T06:37:13.875Z,1.92
2023-05-10T06:39:40.330Z,2.80
2023-05-10T06:42:06.795Z,2.00
2023-05-10T06:44:33.270Z,2.20
2023-05-10T06:46:59.809Z,1.97
2023-05-10T06:49:26.203Z,3.43
2023-05-10T06:51:52.836Z,2.80
2023-05-10T06:54:20.093Z,4.07
2023-05-10T06:56:46.463Z,2.92
2023-05-10T06:59:14.563Z,2.45
2023-05-10T07:01:41.429Z,2.20
2023-05-10T07:04:08.859Z,4.80
2023-05-10T07:09:02.211Z,2.42
2023-05-10T07:11:28.853Z,2.10
2023-05-10T07:13:55.417Z,3.33
2023-05-10T07:16:22.674Z,3.13
2023-05-10T07:21:16.002Z,2.75
2023-05-10T07:23:44.959Z,2.75
2023-05-10T07:26:12.363Z,3.22
2023-05-10T07:28:39.157Z,1.75
2023-05-10T07:31:05.776Z,2.40
2023-05-10T07:33:32.210Z,2.22
2023-05-10T07:35:58.644Z,2.58
2023-05-10T07:38:25.054Z,5.10
2023-05-10T07:40:51.497Z,2.20
2023-05-10T07:43:17.909Z,2.22
2023-05-10T07:45:44.519Z,2.40
2023-05-10T07:48:10.965Z,3.53
2023-05-10T07:50:37.508Z,2.65
2023-05-10T07:53:04.009Z,3.08
2023-05-10T07:55:30.713Z,1.90
2023-05-10T07:57:57.384Z,2.22
2023-05-10T08:00:23.858Z,2.13
2023-05-10T08:02:50.436Z,2.17
2023-05-10T08:05:17.212Z,2.78
2023-05-10T08:07:43.944Z,3.28
2023-05-10T08:10:12.134Z,2.20
2023-05-10T08:12:39.249Z,2.38
2023-05-10T08:15:06.625Z,2.17
2023-05-10T08:22:26.368Z,3.50
2023-05-10T08:24:53.117Z,2.67
2023-05-10T08:27:19.618Z,2.15
2023-05-10T08:29:50.121Z,3.90
2023-05-10T08:32:17.175Z,2.03
2023-05-10T08:34:43.661Z,3.42
2023-05-10T08:37:11.427Z,2.53
2023-05-10T08:39:38.436Z,2.42
2023-05-10T08:42:05.959Z,2.10
2023-05-10T08:44:35.085Z,2.20
2023-05-10T08:47:05.145Z,2.17
2023-05-10T08:49:32.846Z,2.53
2023-05-10T08:52:02.804Z,3.92
2023-05-10T08:54:29.204Z,3.92
2023-05-10T08:56:55.814Z,2.30
2023-05-10T08:59:22.512Z,4.22
2023-05-10T09:01:50.855Z,2.67
2023-05-10T09:04:17.383Z,2.13
2023-05-10T09:06:43.879Z,1.80
2023-05-10T09:09:10.278Z,2.30
2023-05-10T09:11:36.795Z,2.00
2023-05-10T09:14:03.726Z,3.33
2023-05-10T09:16:30.311Z,1.88
2023-05-10T09:18:57.121Z,2.05
2023-05-10T09:21:23.860Z,4.97
2023-05-10T09:23:51.296Z,2.58
2023-05-10T09:26:18.641Z,2.03
2023-05-10T09:28:56.958Z,2.38
2023-05-10T09:31:24.801Z,2.83
2023-05-10T09:33:51.936Z,2.10
2023-05-10T09:36:18.776Z,2.72
2023-05-10T09:38:50.021Z,2.00
2023-05-10T09:41:21.687Z,2.17
2023-05-10T09:43:48.721Z,1.80
2023-05-10T09:46:16.319Z,1.85
2023-05-10T09:48:46.987Z,2.28
2023-05-10T09:51:24.252Z,2.30
2023-05-10T09:54:11.099Z,2.10
2023-05-10T09:59:08.246Z,2.20
2023-05-10T10:01:36.201Z,2.95
2023-05-10T10:04:07.502Z,2.20
2023-05-10T10:06:38.765Z,5.88
2023-05-10T10:09:07.042Z,3.05
2023-05-10T10:11:35.514Z,2.13
2023-05-10T10:14:02.297Z,2.25
2023-05-10T10:16:32.888Z,2.55
2023-05-10T10:18:59.781Z,2.38
2023-05-10T10:21:26.703Z,3.90
2023-05-10T10:23:54.122Z,2.63
2023-05-10T10:26:22.107Z,2.28
2023-05-10T10:29:07.160Z,1.90
2023-05-10T10:31:40.256Z,2.83
2023-05-10T10:34:08.129Z,2.85
2023-05-10T10:36:49.946Z,3.80
2023-05-10T10:39:17.022Z,1.67
2023-05-10T10:41:51.838Z,2.10
2023-05-10T10:44:27.635Z,2.60
2023-05-10T10:47:06.689Z,2.22
2023-05-10T10:49:34.719Z,1.80
2023-05-10T10:52:35.078Z,2.38
2023-05-10T10:55:07.996Z,2.55
2023-05-10T10:57:45.677Z,2.80
2023-05-10T11:00:25.016Z,2.80
2023-05-10T11:02:57.456Z,2.83
2023-05-10T11:05:41.802Z,3.22
2023-05-10T11:08:17.148Z,2.75
2023-05-10T11:10:53.195Z,1.92
2023-05-10T11:13:30.297Z,1.92
2023-05-10T11:18:26.872Z,2.47
2023-05-10T11:21:10.397Z,3.55
2023-05-10T11:23:59.656Z,2.67
2023-05-10T11:26:30.800Z,2.38
2023-05-10T11:28:57.337Z,3.95
2023-05-10T11:31:24.308Z,2.17
2023-05-10T11:33:53.239Z,2.10
2023-05-10T11:36:21.798Z,3.05
2023-05-10T11:38:49.598Z,2.85
2023-05-10T11:41:18.071Z,2.17
2023-05-10T11:43:47.265Z,2.28
2023-05-10T11:46:14.347Z,2.30
2023-05-10T11:48:41.134Z,4.10
2023-05-10T11:51:08.851Z,3.65
2023-05-10T11:53:35.667Z,2.17
2023-05-10T11:56:07.020Z,3.10
2023-05-10T11:58:34.476Z,2.45
2023-05-10T12:01:01.442Z,2.15
2023-05-10T12:03:29.194Z,2.25
2023-05-10T12:05:56.571Z,2.28
2023-05-10T12:10:51.404Z,2.30
2023-05-10T12:13:18.584Z,2.00
2023-05-10T12:18:16.104Z,2.17
2023-05-10T12:20:42.639Z,5.85
2023-05-10T12:23:10.945Z,2.10
2023-05-10T12:25:38.552Z,2.75
2023-05-10T12:28:07.499Z,3.22
2023-05-10T12:30:36.026Z,2.47
2023-05-10T12:33:11.802Z,1.95
2023-05-10T12:35:49.576Z,1.85
2023-05-10T12:38:30.764Z,1.98
2023-05-10T12:40:59.150Z,3.30
2023-05-10T12:43:25.728Z,1.98
2023-05-10T12:45:52.368Z,2.53
2023-05-10T12:48:18.948Z,2.35
2023-05-10T12:50:46.219Z,1.90
2023-05-10T12:53:14.855Z,1.95
2023-05-10T12:55:41.351Z,1.75
2023-05-10T12:58:07.908Z,1.50
2023-05-10T13:00:34.489Z,1.92
2023-05-10T13:03:00.989Z,1.88
2023-05-10T13:05:27.405Z,2.00
2023-05-10T13:07:53.773Z,4.22
2023-05-10T13:10:20.216Z,1.80
2023-05-10T13:12:46.710Z,2.10
2023-05-10T13:15:13.103Z,1.92
2023-05-10T13:17:41.707Z,1.70
2023-05-10T13:20:08.386Z,2.15
2023-05-10T13:22:40.288Z,1.75
2023-05-10T13:25:07.377Z,1.60
2023-05-10T13:27:33.811Z,4.28
2023-05-10T13:30:00.505Z,2.28
2023-05-10T13:32:27.389Z,3.30
2023-05-10T13:34:53.949Z,1.98
2023-05-10T13:37:20.555Z,2.70
2023-05-10T13:39:47.035Z,1.80
2023-05-10T13:42:13.602Z,1.80
2023-05-10T13:44:40.288Z,2.15
2023-05-10T13:47:07.670Z,1.75
2023-05-10T13:49:35.025Z,2.25
2023-05-10T13:52:07.694Z,3.80
2023-05-10T13:54:35.303Z,1.83
2023-05-10T13:57:01.695Z,2.22
2023-05-10T13:59:28.277Z,1.90
2023-05-10T14:01:54.756Z,2.00
2023-05-10T14:04:21.679Z,1.88
2023-05-10T14:06:52.151Z,2.17
2023-05-10T14:09:19.437Z,1.90
2023-05-10T14:11:46.678Z,2.58
2023-05-10T14:16:45.315Z,2.72
2023-05-10T14:19:12.478Z,2.00
2023-05-10T14:21:39.107Z,1.70
2023-05-10T14:24:05.946Z,1.80
2023-05-10T14:26:32.428Z,1.95
2023-05-10T14:29:00.072Z,1.98
2023-05-10T14:31:26.679Z,3.05
2023-05-10T14:33:54.008Z,4.32
2023-05-10T14:36:20.476Z,2.55
2023-05-10T14:38:46.957Z,1.98
2023-05-10T14:41:15.542Z,3.38
2023-05-10T14:43:42.342Z,1.77
2023-05-10T14:46:09.599Z,2.15
2023-05-10T14:48:36.320Z,2.53
2023-05-10T14:51:03.056Z,4.28
2023-05-10T14:53:29.656Z,1.85
2023-05-10T14:55:56.069Z,2.33
2023-05-10T14:58:22.609Z,1.98
2023-05-10T15:00:49.691Z,1.95
2023-05-10T15:03:17.158Z,1.85
2023-05-10T15:05:44.045Z,1.98
2023-05-10T15:08:10.723Z,1.80
2023-05-10T15:10:37.843Z,3.83
2023-05-10T15:13:05.626Z,1.70
2023-05-10T15:15:32.296Z,1.90
2023-05-10T15:17:58.954Z,7.65
2023-05-10T15:20:25.934Z,4.32
2023-05-10T15:22:52.379Z,3.63
2023-05-10T15:25:19.162Z,2.67
2023-05-10T15:27:46.077Z,2.08
2023-05-10T15:30:13.192Z,2.58
2023-05-10T15:32:41.038Z,1.73
2023-05-10T15:35:09.499Z,1.48
2023-05-10T15:37:36.694Z,2.00
2023-05-10T15:42:32.812Z,1.92
2023-05-10T15:44:59.698Z,1.70
2023-05-10T15:47:27.008Z,2.03
2023-05-10T15:49:53.487Z,1.95
2023-05-10T15:52:21.566Z,2.47
2023-05-10T15:54:48.047Z,2.65
2023-05-10T15:57:14.430Z,2.53
2023-05-10T15:59:40.883Z,2.30
2023-05-10T16:02:08.487Z,2.60
2023-05-10T16:04:34.897Z,2.70
2023-05-10T16:07:01.595Z,1.73
2023-05-10T16:09:27.960Z,1.73
2023-05-10T16:11:54.470Z,3.07
2023-05-10T16:14:24.649Z,1.88
2023-05-10T16:16:51.596Z,3.60
2023-05-10T16:19:18.487Z,3.47
2023-05-10T16:21:45.129Z,1.90
2023-05-10T16:24:11.508Z,1.92
2023-05-10T16:26:40.915Z,2.57
2023-05-10T16:29:10.619Z,2.03
2023-05-10T16:31:37.135Z,2.70
2023-05-10T16:34:03.756Z,2.20
2023-05-10T16:36:31.511Z,3.05
2023-05-10T16:38:58.041Z,2.50
2023-05-10T16:41:24.740Z,3.05
2023-05-10T16:43:51.287Z,2.63
2023-05-10T16:46:17.800Z,2.50
2023-05-10T16:48:44.233Z,3.53
2023-05-10T16:51:10.628Z,2.40
2023-05-10T16:53:37.116Z,2.80
2023-05-10T16:56:03.598Z,2.00
2023-05-10T16:58:30.039Z,2.30
2023-05-10T17:00:56.472Z,2.33
2023-05-10T17:03:23.352Z,2.28
2023-05-10T17:05:50.034Z,2.10
2023-05-10T17:08:16.516Z,3.55
2023-05-10T17:10:42.906Z,2.58
2023-05-10T17:13:10.399Z,2.00
2023-05-10T17:15:37.737Z,2.58
2023-05-10T17:18:04.798Z,2.05
2023-05-10T17:20:32.264Z,2.03
2023-05-10T17:22:58.840Z,2.00
2023-05-10T17:25:25.617Z,2.00
2023-05-10T17:27:52.028Z,2.58
2023-05-10T17:30:22.555Z,2.30
2023-05-10T17:32:49.090Z,2.22
2023-05-10T17:35:15.730Z,2.22
2023-05-10T17:37:42.634Z,2.33
2023-05-10T17:40:10.048Z,2.90
2023-05-10T17:42:36.736Z,2.58
2023-05-10T17:45:03.826Z,2.03
2023-05-10T17:47:30.478Z,2.53
2023-05-10T17:49:56.912Z,5.05
2023-05-10T17:52:23.314Z,3.90
2023-05-10T17:54:49.681Z,2.90
2023-05-10T17:57:16.023Z,2.80
2023-05-10T17:59:42.412Z,2.67
2023-05-10T18:02:08.753Z,2.58
2023-05-10T18:04:35.273Z,2.70
2023-05-10T18:07:01.995Z,2.72
2023-05-10T18:09:28.756Z,5.45
2023-05-10T18:11:55.165Z,2.60
2023-05-10T18:14:35.946Z,2.50
2023-05-10T18:17:06.900Z,2.53
2023-05-10T18:19:33.514Z,2.60
2023-05-10T18:21:59.858Z,3.67
2023-05-10T18:24:38.354Z,5.05
2023-05-10T18:27:06.955Z,3.13
2023-05-10T18:29:33.424Z,2.97
2023-05-10T18:31:59.836Z,3.47
2023-05-10T18:34:26.309Z,3.15
2023-05-10T18:36:53.058Z,3.80
2023-05-10T18:39:19.726Z,2.47
2023-05-10T18:41:46.362Z,2.75
2023-05-10T18:44:12.766Z,2.40
2023-05-10T18:46:39.493Z,2.50
2023-05-10T18:49:06.602Z,2.80
2023-05-10T18:51:33.138Z,2.72
2023-05-10T18:53:59.543Z,3.25
2023-05-10T18:56:25.966Z,2.97
2023-05-10T18:58:52.736Z,3.03
2023-05-10T19:01:19.283Z,3.45
2023-05-10T19:03:45.741Z,4.40
2023-05-10T19:06:12.236Z,3.40
2023-05-10T19:08:38.796Z,3.37
2023-05-10T19:11:05.281Z,2.60
2023-05-10T19:13:31.863Z,2.90
2023-05-10T19:16:24.896Z,2.63
2023-05-10T19:18:52.357Z,2.47
2023-05-10T19:21:18.978Z,2.88
2023-05-10T19:23:46.195Z,2.85
2023-05-10T19:26:12.738Z,3.05
2023-05-10T19:28:39.613Z,3.73
2023-05-10T19:31:07.784Z,3.72
2023-05-10T19:33:34.542Z,5.68
2023-05-10T19:36:01.003Z,5.63
2023-05-10T19:38:27.633Z,7.13
2023-05-10T19:40:59.728Z,4.18
2023-05-10T19:43:27.615Z,7.38
2023-05-10T19:45:55.072Z,4.13
2023-05-10T19:50:48.141Z,5.50
2023-05-10T19:53:14.583Z,7.05
2023-05-10T19:55:41.694Z,7.77
2023-05-10T19:58:08.518Z,12.07
2023-05-10T20:00:35.059Z,10.23
2023-05-10T20:03:02.135Z,12.57
2023-05-10T20:05:28.854Z,14.95
2023-05-10T20:07:55.226Z,23.50
2023-05-10T20:10:22.065Z,18.67
2023-05-10T20:12:52.175Z,9.85
2023-05-10T20:15:20.642Z,9.52
2023-05-10T20:17:47.910Z,14.80
2023-05-10T20:20:16.559Z,16.67
2023-05-10T20:22:44.213Z,11.20
2023-05-10T20:27:37.489Z,8.18
2023-05-10T20:30:04.908Z,10.37
2023-05-10T20:34:58.264Z,7.57
2023-05-10T20:37:24.646Z,8.43
2023-05-10T20:39:51.032Z,6.15
2023-05-10T20:42:17.378Z,7.05
2023-05-10T20:44:43.761Z,6.25
2023-05-10T20:47:10.194Z,7.32
2023-05-10T20:49:37.940Z,4.80
2023-05-10T20:52:05.014Z,4.15
2023-05-10T20:54:31.505Z,4.80
2023-05-10T20:56:57.998Z,3.75
2023-05-10T20:59:25.485Z,3.20
2023-05-10T21:04:19.374Z,2.40
2023-05-10T21:06:46.712Z,2.72
2023-05-10T21:09:14.812Z,2.63
2023-05-10T21:11:42.131Z,2.35
2023-05-10T21:14:10.441Z,2.22
2023-05-10T21:16:38.570Z,2.03
2023-05-10T21:19:07.493Z,2.95
2023-05-10T21:21:34.103Z,2.28
2023-05-10T21:24:00.596Z,1.92
2023-05-10T21:26:27.068Z,2.97
2023-05-10T21:28:53.449Z,3.72
2023-05-10T21:31:20.229Z,2.03
2023-05-10T21:33:46.677Z,3.33
2023-05-10T21:36:13.096Z,3.42
2023-05-10T21:38:39.488Z,1.80
2023-05-10T21:41:08.676Z,1.70
2023-05-10T21:43:35.051Z,1.90
2023-05-10T21:46:01.539Z,2.42
2023-05-10T21:48:27.971Z,4.50
2023-05-10T21:50:54.414Z,6.95
2023-05-10T21:53:20.797Z,1.98
2023-05-10T21:55:48.148Z,2.00
2023-05-10T21:58:14.554Z,2.17
2023-05-10T22:00:40.953Z,2.33
2023-05-10T22:03:07.413Z,2.08
2023-05-10T22:05:33.812Z,2.40
2023-05-10T22:08:00.243Z,2.40
2023-05-10T22:10:26.602Z,3.10
2023-05-10T22:12:52.984Z,5.35
2023-05-10T22:15:19.334Z,2.10
2023-05-10T22:17:45.754Z,2.22
2023-05-10T22:20:12.450Z,2.70
2023-05-10T22:22:38.782Z,3.20
2023-05-10T22:25:07.401Z,2.63
2023-05-10T22:27:34.130Z,2.85
2023-05-10T22:30:00.622Z,2.28
2023-05-10T22:32:27.231Z,5.23
2023-05-10T22:34:53.756Z,2.03
2023-05-10T22:37:20.149Z,3.95
2023-05-10T22:39:46.785Z,2.33
2023-05-10T22:42:13.165Z,4.70
2023-05-10T22:44:39.540Z,2.38
2023-05-10T22:47:06.809Z,2.45
2023-05-10T22:49:33.934Z,4.43
2023-05-10T22:52:00.600Z,2.50
2023-05-10T22:54:27.798Z,2.83
2023-05-10T22:56:54.426Z,3.80
2023-05-10T22:59:20.987Z,5.20
2023-05-10T23:01:48.941Z,2.20
2023-05-10T23:04:15.759Z,2.10
2023-05-10T23:06:42.272Z,2.30
2023-05-10T23:09:08.963Z,2.35
2023-05-10T23:11:35.394Z,2.30
2023-05-10T23:14:01.903Z,1.85
2023-05-10T23:16:28.490Z,2.45
2023-05-10T23:18:55.256Z,2.53
2023-05-10T23:21:21.637Z,2.10
2023-05-10T23:23:48.035Z,2.50
2023-05-10T23:26:14.490Z,2.88
2023-05-10T23:28:41.000Z,2.60
2023-05-10T23:31:07.380Z,5.38
2023-05-10T23:33:33.766Z,4.13
2023-05-10T23:36:00.185Z,2.30
2023-05-10T23:38:27.008Z,3.10
2023-05-10T23:40:53.456Z,2.88
2023-05-10T23:43:20.838Z,2.40
2023-05-10T23:45:54.724Z,4.53
2023-05-10T23:48:21.385Z,2.45
2023-05-10T23:50:47.941Z,2.33
2023-05-10T23:53:14.316Z,3.05
2023-05-10T23:55:40.659Z,3.22
2023-05-10T23:58:07.033Z,2.42
